»·PEaware :: N929X KBFL-KTRM

N929X :: KBFL-KTRM

FLIGHT INFORMATION

Flight Status: Arrived
Operator: Privately registered:
United States
More flights under this callsign
Pilot: Scott M. (16181)
Aircraft: Unknown
(EPIC)
More flights by this aircraft type
Origin: KBFL Meadows
United States
Destination: KTRM Desert Resorts Regl
United States
More flights between these airports :: More routes between these airports
Route:
File this flight plan on PilotEdge
Remarks:
Altitude:
(Current/Filed)
9,500ft
Speed:
(Current/Filed)
174kts
Departed: 04-Jan-18 05:34 PM
Arrived: 04-Jan-18 06:49 PM
Distance/Time
Traveled:
179nm/1:15
Distance/Time
To Go:
Arrived

Flight Plot

Page will automatically refresh every two minutes.


Map Options




Map Legend


Flown Route
Filed Route
Departure Airport
Arrival Airport
Navaid (VOR, NDB)
Fix

Horizontal Profiles

Position Reports

Time Latitude Longitude Heading Altitude Ground
Speed
04-Jan-18 17:23 35.429377 -119.046093 225 495ft 0kts
04-Jan-18 17:24 35.429377 -119.046093 225 495ft 0kts
04-Jan-18 17:25 35.429377 -119.046093 225 495ft 0kts
04-Jan-18 17:26 35.429377 -119.046093 225 495ft 0kts
04-Jan-18 17:27 35.429377 -119.046093 225 495ft 0kts
04-Jan-18 17:28 35.429377 -119.046093 225 495ft 0kts
04-Jan-18 17:29 35.429377 -119.046093 225 495ft 0kts
04-Jan-18 17:30 35.429377 -119.046093 225 495ft 0kts
04-Jan-18 17:31 35.429377 -119.046093 225 495ft 0kts
04-Jan-18 17:32 35.429377 -119.046093 225 495ft 0kts
04-Jan-18 17:33 35.429377 -119.046093 225 495ft 0kts
04-Jan-18 17:34 35.429377 -119.046093 225 495ft 0kts
04-Jan-18 17:35 35.429377 -119.046093 225 495ft 0kts
04-Jan-18 17:36 35.429377 -119.046093 225 495ft 0kts
04-Jan-18 17:37 35.426860 -119.045522 135 483ft 25kts
04-Jan-18 17:38 35.425721 -119.044764 222 480ft 0kts
04-Jan-18 17:39 35.425715 -119.044770 222 480ft 2kts
04-Jan-18 17:40 35.436915 -119.060253 312 791ft 139kts
04-Jan-18 17:41 35.427975 -119.092930 162 1810ft 134kts
04-Jan-18 17:42 35.402817 -119.059182 137 2237ft 136kts
04-Jan-18 17:43 35.392084 -119.028234 117 3452ft 137kts
04-Jan-18 17:44 35.372560 -118.989693 129 5001ft 137kts
04-Jan-18 17:45 35.353583 -118.960980 133 6235ft 145kts
04-Jan-18 17:46 35.322308 -118.918878 136 7758ft 171kts
04-Jan-18 17:47 35.288884 -118.876136 137 9397ft 180kts
04-Jan-18 17:48 35.252286 -118.830175 137 9476ft 184kts
04-Jan-18 17:49 35.217908 -118.787212 138 9481ft 175kts
04-Jan-18 17:50 35.184994 -118.746190 137 9481ft 178kts
04-Jan-18 17:51 35.150688 -118.703489 137 9480ft 179kts
04-Jan-18 17:52 35.115822 -118.660147 137 9480ft 179kts
04-Jan-18 17:53 35.080673 -118.616534 137 9481ft 184kts
04-Jan-18 17:54 35.045969 -118.573509 138 9479ft 180kts
04-Jan-18 17:55 35.011268 -118.530537 138 9479ft 176kts
04-Jan-18 17:56 34.977023 -118.488190 138 9452ft 175kts
04-Jan-18 17:57 34.942958 -118.446121 138 9453ft 176kts
04-Jan-18 17:58 34.908261 -118.403326 138 9452ft 179kts
04-Jan-18 17:59 34.885689 -118.375506 138 9453ft 181kts
04-Jan-18 18:00 34.850596 -118.332301 139 9484ft 190kts
04-Jan-18 18:01 34.813860 -118.287152 139 9480ft 188kts
04-Jan-18 18:02 34.777444 -118.242446 139 9481ft 187kts
04-Jan-18 18:03 34.741411 -118.198267 139 9484ft 187kts
04-Jan-18 18:04 34.705092 -118.153778 140 9486ft 187kts
04-Jan-18 18:05 34.668834 -118.109455 140 9487ft 187kts
04-Jan-18 18:06 34.634023 -118.063543 112 9492ft 195kts
04-Jan-18 18:07 34.621255 -117.999132 105 9486ft 198kts
04-Jan-18 18:08 34.609960 -117.934402 104 9484ft 197kts
04-Jan-18 18:09 34.599016 -117.869887 104 9485ft 196kts
04-Jan-18 18:10 34.588279 -117.806243 103 9485ft 196kts
04-Jan-18 18:11 34.577353 -117.741801 103 9488ft 196kts
04-Jan-18 18:12 34.569434 -117.695089 102 9491ft 196kts
04-Jan-18 18:13 34.569434 -117.695089 102 9491ft 196kts
04-Jan-18 18:14 34.565500 -117.671925 102 9491ft 196kts
04-Jan-18 18:15 34.559345 -117.635731 102 9500ft 195kts
04-Jan-18 18:16 34.548515 -117.571659 105 9456ft 194kts
04-Jan-18 18:17 34.537825 -117.509450 105 9453ft 184kts
04-Jan-18 18:18 34.527658 -117.450275 105 9454ft 178kts
04-Jan-18 18:19 34.517673 -117.392306 105 9431ft 176kts
04-Jan-18 18:20 34.507854 -117.335431 106 9426ft 174kts
04-Jan-18 18:21 34.497980 -117.278403 106 9426ft 173kts
04-Jan-18 18:22 34.488056 -117.221268 106 9426ft 174kts
04-Jan-18 18:23 34.478040 -117.163764 106 9426ft 174kts
04-Jan-18 18:24 34.468000 -117.106284 106 9426ft 174kts
04-Jan-18 18:25 34.457949 -117.048909 106 9426ft 174kts
04-Jan-18 18:26 34.447797 -116.991128 106 9426ft 175kts
04-Jan-18 18:27 34.437557 -116.933051 106 9472ft 180kts
04-Jan-18 18:28 34.427015 -116.873405 106 9472ft 182kts
04-Jan-18 18:29 34.416339 -116.813176 106 9472ft 183kts
04-Jan-18 18:30 34.405604 -116.752803 106 9472ft 183kts
04-Jan-18 18:31 34.394846 -116.692476 106 9472ft 184kts
04-Jan-18 18:32 34.381354 -116.633542 138 9472ft 176kts
04-Jan-18 18:33 34.344347 -116.595061 143 9472ft 175kts
04-Jan-18 18:34 34.306418 -116.558184 144 9472ft 175kts
04-Jan-18 18:35 34.268263 -116.521820 145 9472ft 175kts
04-Jan-18 18:36 34.229917 -116.485517 145 9471ft 175kts
04-Jan-18 18:37 34.191651 -116.449389 145 9471ft 175kts
04-Jan-18 18:38 34.153310 -116.413251 145 9471ft 175kts
04-Jan-18 18:39 34.114970 -116.377161 145 9471ft 175kts
04-Jan-18 18:40 34.076890 -116.341362 145 9470ft 175kts
04-Jan-18 18:41 34.039060 -116.305831 145 9460ft 168kts
04-Jan-18 18:42 34.001098 -116.270253 145 8768ft 174kts
04-Jan-18 18:43 33.969341 -116.240507 145 8154ft 173kts
04-Jan-18 18:44 33.926022 -116.199955 145 7513ft 155kts
04-Jan-18 18:45 33.896203 -116.172067 145 7226ft 130kts
04-Jan-18 18:46 33.872084 -116.149565 144 6682ft 134kts
04-Jan-18 18:47 33.835066 -116.125659 184 5897ft 137kts
04-Jan-18 18:48 33.797482 -116.135804 194 4905ft 144kts
04-Jan-18 18:49 33.766508 -116.147170 193 4115ft 128kts
04-Jan-18 18:50 33.735994 -116.154540 185 2950ft 101kts
04-Jan-18 18:51 33.712321 -116.156065 178 1815ft 80kts
04-Jan-18 18:52 33.689876 -116.156178 176 1259ft 84kts
04-Jan-18 18:53 33.665297 -116.156372 178 841ft 89kts
04-Jan-18 18:54 33.639922 -116.156349 179 -46ft 88kts
04-Jan-18 18:55 33.630360 -116.157733 359 -113ft 22kts
04-Jan-18 18:56 33.634128 -116.158258 276 -110ft 20kts
04-Jan-18 18:57 33.635836 -116.160824 355 -107ft 0kts

Navigation Log

Ident Type
1. KBFL Airport
2. KTRM Airport